Vernon Center, Minnesota
Current Conditions -  °F | °C
As of 1:34 AM on Saturday 29 Nov 2014 (Local Time) from KJYG Reporting Station
Haze Haze  
Wind Chill:   Ceiling: Unl
Heat Index: 16°   Visibility: 4mi
Dew Point: 14°   Wind: 5mph
Humidity: 93%   Direction: 130°SE
Pressure: 29.58"   Gusts: NA
Location:  43.96°N, 94.17°W
Report Text: KJYG 290734Z AUTO 13004KT 4SM BR CLR M09/M10 A2958 RMK AO2
Loading
Personal Weather Stations






























Interactive Weather Map New forecast layout! Learn more

10-Day Weather Forecast

Advertisements
Track Severe Weather on mobile